Other Surface Observations
Issued by NWS Great Falls, MT

Home | Current Version | Previous Version | Text Only | Print | Product List | Glossary On
Versions: 1 2 3 4 5 6 7 8 9 10 11 12 13 14 15 16 17 18 19 20 21 22 23 24 25 26 27 28 29 30 31 32 33 34 35 36 37 38 39 40 41 42 43 44 45 46 47 48 49 50
000
SXUS55 KTFX 281915
OSOTFX
AREA AWOS OBSERVATIONS
NATIONAL WEATHER SERVICE GREAT FALLS MT
0114 PM MDT WED SEP 28 2016

METAR KPWD 281915Z AUTO 05007KT 10SM 20/09 A3026 RMK PLENTYWOOD
METAR KPO1 281915Z AUTO 06006KT 4SM 19/09 A3026 RMK POPLAR
METAR K1S3 281915Z AUTO 00000KT 6SM 18/10 A3026 RMK FORSYTH
METAR KS71 281915Z AUTO 08007KT 16/08 A3026 RMK CHINOOK
METAR K38S 281915Z AUTO 18005KT 10SM 24/06 A3018 RMK DEER LODGE
METAR K3U3 281915Z AUTO 14009KT 10SM 23/04 A3017 RMK ANACONDA
METAR K6S5 281915Z AUTO 00000KT 10SM 21/06 A3009 RMK HAMILTON
METAR KS59 281915Z AUTO 00000KT 10SM 19/07 A3007 RMK LIBBY
METAR K88M 281915Z AUTO 31004KT 10SM 19/03 A3012 RMK EUREKA



USA.gov is the U.S. government's official web portal to all federal, state and local government web resources and services.